createdAt,value
2023-05-12T00:02:42.508Z,3.60
2023-05-12T00:05:11.533Z,3.30
2023-05-12T00:07:39.895Z,4.60
2023-05-12T00:10:09.334Z,5.28
2023-05-12T00:12:37.962Z,3.88
2023-05-12T01:02:38.000Z,3.28
2023-05-12T01:05:07.626Z,2.85
2023-05-12T01:07:37.167Z,3.85
2023-05-12T01:10:06.852Z,3.03
2023-05-12T01:12:37.631Z,3.67
2023-05-12T01:47:32.403Z,3.10
2023-05-12T01:50:11.792Z,2.72
2023-05-12T01:52:40.865Z,4.03
2023-05-12T01:55:13.410Z,3.22
2023-05-12T01:57:47.986Z,3.38
2023-05-12T02:47:07.761Z,2.97
2023-05-12T02:49:36.386Z,3.05
2023-05-12T02:52:05.369Z,4.28
2023-05-12T02:54:33.735Z,2.72
2023-05-12T02:57:06.849Z,4.43
2023-05-12T02:59:35.225Z,4.07
2023-05-12T03:45:59.236Z,3.15
2023-05-12T03:48:29.107Z,3.30
2023-05-12T03:50:58.239Z,2.65
2023-05-12T03:53:26.731Z,2.97
2023-05-12T03:55:55.100Z,2.60
2023-05-12T03:58:24.303Z,4.00
2023-05-12T04:46:16.550Z,3.30
2023-05-12T04:48:45.205Z,5.32
2023-05-12T04:51:13.710Z,2.40
2023-05-12T04:53:41.986Z,2.67
2023-05-12T04:56:10.357Z,3.13
2023-05-12T04:58:40.191Z,3.20
2023-05-12T05:01:08.806Z,2.67
2023-05-12T05:03:38.859Z,3.55
2023-05-12T05:06:07.899Z,3.38
2023-05-12T05:08:36.596Z,5.97
2023-05-12T05:11:05.373Z,4.28
2023-05-12T05:13:34.429Z,3.67
2023-05-12T05:16:03.007Z,5.10
2023-05-12T05:18:32.403Z,4.10
2023-05-12T05:21:02.380Z,3.10
2023-05-12T05:23:30.787Z,4.63
2023-05-12T05:25:59.250Z,3.72
2023-05-12T05:28:28.036Z,4.07
2023-05-12T05:30:56.491Z,3.47
2023-05-12T05:33:25.068Z,4.25
2023-05-12T05:35:53.798Z,3.50
2023-05-12T05:38:24.020Z,4.72
2023-05-12T05:40:54.463Z,3.83
2023-05-12T05:43:24.900Z,3.67
2023-05-12T05:45:55.925Z,4.75
2023-05-12T05:48:24.479Z,3.97
2023-05-12T05:50:54.000Z,5.32
2023-05-12T05:53:25.413Z,4.30
2023-05-12T05:55:54.592Z,4.07
2023-05-12T05:58:24.770Z,7.00
2023-05-12T06:00:53.215Z,3.95
2023-05-12T06:03:21.699Z,4.18
2023-05-12T06:05:50.814Z,4.50
2023-05-12T06:08:19.994Z,6.22
2023-05-12T06:10:50.726Z,9.13
2023-05-12T06:13:20.212Z,7.10
2023-05-12T06:15:48.661Z,6.28
2023-05-12T06:18:17.245Z,6.28
2023-05-12T06:20:45.624Z,6.03
2023-05-12T06:23:13.937Z,6.65
2023-05-12T06:25:42.323Z,5.97
2023-05-12T06:28:12.102Z,4.82
2023-05-12T06:30:41.699Z,4.47
2023-05-12T06:33:10.192Z,3.75
2023-05-12T06:35:38.565Z,4.10
2023-05-12T06:38:07.536Z,4.00
2023-05-12T06:40:35.956Z,5.88
2023-05-12T06:43:05.118Z,5.47
2023-05-12T06:45:38.569Z,4.35
2023-05-12T06:48:11.894Z,5.32
2023-05-12T06:50:40.471Z,5.28
2023-05-12T06:53:08.858Z,5.18
2023-05-12T06:55:37.189Z,4.13
2023-05-12T06:58:05.569Z,4.82
2023-05-12T07:00:34.100Z,3.90
2023-05-12T07:03:04.016Z,5.18
2023-05-12T07:05:32.514Z,5.65
2023-05-12T07:08:00.810Z,6.55
2023-05-12T07:10:29.172Z,4.20
2023-05-12T07:12:57.528Z,4.38
2023-05-12T07:15:25.878Z,3.33
2023-05-12T07:17:55.799Z,4.65
2023-05-12T07:20:25.709Z,5.20
2023-05-12T07:22:54.781Z,4.45
2023-05-12T07:25:23.467Z,5.32
2023-05-12T07:27:52.006Z,4.13
2023-05-12T07:30:22.408Z,3.47
2023-05-12T07:32:50.868Z,3.92
2023-05-12T07:35:19.452Z,3.53
2023-05-12T07:37:49.371Z,6.43
2023-05-12T07:40:17.860Z,4.50
2023-05-12T07:42:46.194Z,6.07
2023-05-12T07:45:14.520Z,3.55
2023-05-12T07:47:42.924Z,3.10
2023-05-12T07:50:11.343Z,4.55
2023-05-12T07:52:50.014Z,7.40
2023-05-12T07:55:19.817Z,5.32
2023-05-12T07:57:48.614Z,5.38
2023-05-12T08:00:17.625Z,5.07
2023-05-12T08:02:47.055Z,7.55
2023-05-12T08:05:15.773Z,3.53
2023-05-12T08:07:44.545Z,4.93
2023-05-12T08:10:14.853Z,4.93
2023-05-12T08:12:43.804Z,3.55
2023-05-12T08:15:12.606Z,3.75
2023-05-12T08:17:41.057Z,4.25
2023-05-12T08:20:10.733Z,3.90
2023-05-12T08:22:39.942Z,2.92
2023-05-12T08:25:11.728Z,3.40
2023-05-12T08:27:42.371Z,2.90
2023-05-12T08:30:12.261Z,3.70
2023-05-12T08:32:40.823Z,4.35
2023-05-12T08:35:09.427Z,4.13
2023-05-12T08:37:37.812Z,3.70
2023-05-12T08:40:15.662Z,3.38
2023-05-12T08:42:50.390Z,4.45
2023-05-12T08:45:19.090Z,3.70
2023-05-12T08:47:48.025Z,4.22
2023-05-12T08:50:19.101Z,4.18
2023-05-12T08:52:47.552Z,4.03
2023-05-12T08:55:16.422Z,4.93
2023-05-12T08:57:48.456Z,4.30
2023-05-12T09:00:18.350Z,4.03
2023-05-12T09:02:54.554Z,4.80
2023-05-12T09:05:23.866Z,3.30
2023-05-12T09:07:55.258Z,4.22
2023-05-12T09:10:35.150Z,3.03
2023-05-12T09:13:15.625Z,4.57
2023-05-12T09:15:48.390Z,3.00
2023-05-12T09:18:16.793Z,3.03
2023-05-12T09:20:45.423Z,3.15
2023-05-12T09:23:18.513Z,5.53
2023-05-12T09:25:48.157Z,3.30
2023-05-12T09:28:18.667Z,3.05
2023-05-12T09:30:47.139Z,3.67
2023-05-12T09:33:15.700Z,6.05
2023-05-12T09:35:46.479Z,4.07
2023-05-12T09:38:15.570Z,5.00
2023-05-12T09:40:44.204Z,6.50
2023-05-12T09:43:15.409Z,7.00
2023-05-12T09:45:47.557Z,4.82
2023-05-12T09:48:16.075Z,5.07
2023-05-12T09:50:48.152Z,2.83
2023-05-12T09:53:19.000Z,3.28
2023-05-12T09:55:48.745Z,4.68
2023-05-12T09:58:18.921Z,4.38
2023-05-12T10:03:23.801Z,9.25
2023-05-12T10:05:57.138Z,5.03
2023-05-12T10:08:30.073Z,6.13
2023-05-12T10:11:00.610Z,3.67
2023-05-12T10:13:29.614Z,5.65
2023-05-12T10:15:59.937Z,3.40
2023-05-12T10:18:28.787Z,6.60
2023-05-12T10:20:58.988Z,2.60
2023-05-12T10:23:28.668Z,3.83
2023-05-12T10:25:58.574Z,2.53
2023-05-12T10:28:26.925Z,3.53
2023-05-12T10:30:56.385Z,4.80
2023-05-12T10:33:26.882Z,5.88
2023-05-12T10:35:55.273Z,4.43
2023-05-12T10:38:23.715Z,5.10
2023-05-12T10:40:59.755Z,3.13
2023-05-12T10:43:30.289Z,2.58
2023-05-12T10:46:09.810Z,5.50
2023-05-12T10:48:56.127Z,2.58
2023-05-12T10:51:28.538Z,5.78
2023-05-12T10:54:02.205Z,3.55
2023-05-12T10:56:32.961Z,3.13
2023-05-12T10:59:17.428Z,2.80
2023-05-12T11:02:01.741Z,3.50
2023-05-12T11:04:42.931Z,3.05
2023-05-12T11:07:14.229Z,412.50
2023-05-12T11:09:56.890Z,872.28
2023-05-12T11:12:32.263Z,755.55
2023-05-12T11:15:02.004Z,722.63
2023-05-12T11:17:30.634Z,669.28
2023-05-12T11:20:01.023Z,641.85
2023-05-12T11:22:29.778Z,609.70
2023-05-12T11:24:58.476Z,619.58
2023-05-12T11:27:26.928Z,1625.93
2023-05-12T11:29:59.461Z,1308.15
2023-05-12T11:32:28.347Z,1078.03
2023-05-12T11:34:58.484Z,948.03
2023-05-12T11:37:28.211Z,882.10
2023-05-12T11:39:56.480Z,794.67
2023-05-12T11:42:25.946Z,779.13
2023-05-12T11:44:55.465Z,720.13
2023-05-12T11:47:23.954Z,666.58
2023-05-12T11:49:54.614Z,612.40
2023-05-12T11:52:28.144Z,596.58
2023-05-12T11:55:00.185Z,567.88
2023-05-12T11:57:30.030Z,562.28
2023-05-12T12:00:00.248Z,550.55
2023-05-12T12:02:29.463Z,541.72
2023-05-12T12:04:58.522Z,560.88
2023-05-12T12:07:36.577Z,535.17
2023-05-12T12:10:13.757Z,525.30
2023-05-12T12:12:42.678Z,520.60
2023-05-12T12:15:12.748Z,526.40
2023-05-12T12:17:41.564Z,508.25
2023-05-12T12:20:11.203Z,511.88
2023-05-12T12:22:40.988Z,504.40
2023-05-12T12:25:11.062Z,491.05
2023-05-12T12:27:39.509Z,484.92
2023-05-12T12:30:10.181Z,497.92
2023-05-12T12:32:38.644Z,475.10
2023-05-12T12:35:08.194Z,452.00
2023-05-12T12:37:36.570Z,475.35
2023-05-12T12:40:09.945Z,460.27
2023-05-12T12:42:41.221Z,453.45
2023-05-12T12:45:10.889Z,432.38
2023-05-12T12:47:39.796Z,326.33
2023-05-12T12:50:10.572Z,229.57
2023-05-12T12:52:39.221Z,213.45
2023-05-12T12:55:10.598Z,197.50
2023-05-12T12:57:39.054Z,189.30
2023-05-12T13:00:10.110Z,169.18
2023-05-12T13:02:38.760Z,166.68
2023-05-12T13:05:09.118Z,148.68
2023-05-12T13:07:37.598Z,150.18
2023-05-12T13:10:09.337Z,158.10
2023-05-12T13:12:37.957Z,150.13
2023-05-12T13:15:07.929Z,144.77
2023-05-12T13:17:36.470Z,149.13
2023-05-12T13:20:05.527Z,138.93
2023-05-12T13:22:33.948Z,136.95
2023-05-12T13:25:02.716Z,136.18
2023-05-12T13:27:32.967Z,139.15
2023-05-12T13:30:01.363Z,129.63
2023-05-12T13:32:30.238Z,134.13
2023-05-12T13:34:58.556Z,120.55
2023-05-12T13:37:27.114Z,92.45
2023-05-12T13:39:55.386Z,75.72
2023-05-12T13:42:23.730Z,67.03
2023-05-12T13:44:53.573Z,62.33
2023-05-12T13:47:21.968Z,69.43
2023-05-12T13:49:50.319Z,61.17
2023-05-12T13:52:18.681Z,54.88
2023-05-12T13:54:47.040Z,47.85
2023-05-12T13:57:15.624Z,44.10
2023-05-12T13:59:43.979Z,32.33
2023-05-12T14:02:14.414Z,29.50
2023-05-12T14:04:42.854Z,24.80
2023-05-12T14:07:11.259Z,18.70
2023-05-12T14:09:39.528Z,19.38
2023-05-12T14:12:09.320Z,16.20
2023-05-12T14:14:37.952Z,20.55
2023-05-12T14:17:06.629Z,20.88
2023-05-12T14:19:36.280Z,20.30
2023-05-12T14:22:09.955Z,23.25
2023-05-12T14:24:47.237Z,20.17
2023-05-12T14:27:15.621Z,20.58
2023-05-12T14:29:43.947Z,16.27
2023-05-12T14:32:12.622Z,17.67
2023-05-12T14:34:42.312Z,20.15
2023-05-12T14:37:10.809Z,18.10
2023-05-12T14:39:39.139Z,17.08
2023-05-12T14:42:08.303Z,17.95
2023-05-12T14:44:37.355Z,14.88
2023-05-12T14:47:09.126Z,14.48
2023-05-12T14:49:37.693Z,13.07
2023-05-12T14:52:08.241Z,13.57
2023-05-12T14:54:36.605Z,14.40
2023-05-12T14:57:05.193Z,12.55
2023-05-12T14:59:33.859Z,12.63
2023-05-12T15:02:02.182Z,13.27
2023-05-12T15:04:30.724Z,12.93
2023-05-12T15:06:59.007Z,12.57
2023-05-12T15:09:28.753Z,11.00
2023-05-12T15:11:57.284Z,11.95
2023-05-12T15:14:25.652Z,11.27
2023-05-12T15:16:54.182Z,11.45
2023-05-12T15:19:22.486Z,11.65
2023-05-12T15:21:50.875Z,11.57
2023-05-12T15:24:19.192Z,13.00
2023-05-12T15:26:48.893Z,11.10
2023-05-12T15:29:17.301Z,11.85
2023-05-12T15:31:45.719Z,14.02
2023-05-12T15:34:14.221Z,13.25
2023-05-12T15:36:45.426Z,12.32
2023-05-12T15:39:13.883Z,12.38
2023-05-12T15:41:42.469Z,12.75
2023-05-12T15:44:12.187Z,12.98
2023-05-12T15:46:40.675Z,12.05
2023-05-12T15:49:09.213Z,13.50
2023-05-12T15:51:37.560Z,12.68
2023-05-12T15:54:08.623Z,14.50
2023-05-12T15:56:38.850Z,13.15
2023-05-12T15:59:07.519Z,12.80
2023-05-12T16:01:37.459Z,13.40
2023-05-12T16:04:05.878Z,11.80
2023-05-12T16:06:34.240Z,13.35
2023-05-12T16:09:02.668Z,10.57
2023-05-12T16:11:31.038Z,11.75
2023-05-12T16:13:59.682Z,12.15
2023-05-12T16:16:28.117Z,11.32
2023-05-12T16:18:57.950Z,11.38
2023-05-12T16:21:26.347Z,13.52
2023-05-12T16:23:54.680Z,10.88
2023-05-12T16:26:23.853Z,14.07
2023-05-12T16:28:52.393Z,11.68
2023-05-12T16:31:20.813Z,11.05
2023-05-12T16:33:49.223Z,11.55
2023-05-12T16:36:19.786Z,10.35
2023-05-12T16:38:48.540Z,11.77
2023-05-12T16:41:17.208Z,9.93
2023-05-12T16:43:46.292Z,12.95
2023-05-12T16:46:14.735Z,11.20
2023-05-12T16:48:43.059Z,11.77
2023-05-12T16:51:11.832Z,11.55
2023-05-12T16:53:42.106Z,11.30
2023-05-12T16:56:10.894Z,8.82
2023-05-12T16:58:39.256Z,9.98
2023-05-12T17:01:07.794Z,10.65
2023-05-12T17:03:36.423Z,8.60
2023-05-12T17:06:05.076Z,9.35
2023-05-12T17:08:35.651Z,9.85
2023-05-12T17:11:06.435Z,10.45
2023-05-12T17:13:38.298Z,13.43
2023-05-12T17:16:07.612Z,12.13
2023-05-12T17:19:13.611Z,9.40
2023-05-12T17:21:24.446Z,9.82
2023-05-12T17:23:53.721Z,14.23
2023-05-12T17:26:23.423Z,10.02
2023-05-12T17:28:51.786Z,10.48
2023-05-12T17:31:20.936Z,10.98
2023-05-12T17:33:49.320Z,12.68
2023-05-12T17:36:18.641Z,9.73
2023-05-12T17:38:47.184Z,10.50
2023-05-12T17:41:16.145Z,9.65
2023-05-12T17:43:46.004Z,10.15
2023-05-12T17:46:14.602Z,11.27
2023-05-12T17:48:42.974Z,10.48
2023-05-12T17:51:11.801Z,10.02
2023-05-12T17:53:40.208Z,8.45
2023-05-12T17:56:08.914Z,8.70
2023-05-12T17:58:37.431Z,8.02
2023-05-12T18:01:07.438Z,10.75
2023-05-12T18:03:36.645Z,11.95
2023-05-12T18:06:05.778Z,11.48
2023-05-12T18:08:34.139Z,9.60
2023-05-12T18:11:03.150Z,10.52
2023-05-12T18:13:31.561Z,9.38
2023-05-12T18:15:59.977Z,9.63
2023-05-12T18:18:29.945Z,8.55
2023-05-12T18:20:59.555Z,8.40
2023-05-12T18:23:27.944Z,6.93
2023-05-12T18:25:57.215Z,7.53
2023-05-12T18:28:25.905Z,9.27
2023-05-12T18:30:56.257Z,6.75
2023-05-12T18:33:29.927Z,7.40
2023-05-12T18:35:58.453Z,6.43
2023-05-12T18:38:26.758Z,6.32
2023-05-12T18:40:55.544Z,8.43
2023-05-12T18:43:23.890Z,6.50
2023-05-12T18:45:53.247Z,7.00
2023-05-12T18:48:21.655Z,7.25
2023-05-12T18:50:51.789Z,8.00
2023-05-12T18:53:20.409Z,6.70
2023-05-12T18:55:49.679Z,8.23
2023-05-12T18:58:18.484Z,7.00
2023-05-12T19:00:46.986Z,6.93
2023-05-12T19:03:15.411Z,8.05
2023-05-12T19:05:46.139Z,7.97
2023-05-12T19:08:16.653Z,6.75
2023-05-12T19:10:45.405Z,6.63
2023-05-12T19:13:13.734Z,7.55
2023-05-12T19:15:42.205Z,7.00
2023-05-12T19:18:10.681Z,6.95
2023-05-12T19:20:39.241Z,8.20
2023-05-12T19:23:07.575Z,6.45
2023-05-12T19:25:37.257Z,5.75
2023-05-12T19:28:06.131Z,5.82
2023-05-12T19:30:35.331Z,6.22
2023-05-12T19:33:03.758Z,6.63
2023-05-12T19:35:32.218Z,6.10
2023-05-12T19:38:00.847Z,6.60
2023-05-12T19:40:30.584Z,5.63
2023-05-12T19:43:00.556Z,5.70
2023-05-12T19:45:29.838Z,5.82
2023-05-12T19:47:59.068Z,8.10
2023-05-12T19:50:27.575Z,7.10
2023-05-12T19:52:56.034Z,5.70
2023-05-12T19:55:24.549Z,5.47
2023-05-12T19:57:52.964Z,6.47
2023-05-12T20:00:23.152Z,7.05
2023-05-12T20:02:51.540Z,7.72
2023-05-12T20:05:20.364Z,5.90
2023-05-12T20:07:49.559Z,7.00
2023-05-12T20:10:18.094Z,5.43
2023-05-12T20:12:46.558Z,6.03
2023-05-12T20:15:15.146Z,6.05
2023-05-12T20:17:44.959Z,5.45
2023-05-12T20:20:14.501Z,5.90
2023-05-12T20:22:42.911Z,6.68
2023-05-12T20:25:15.841Z,5.90
2023-05-12T20:27:45.094Z,6.22
2023-05-12T20:30:14.289Z,6.05
2023-05-12T20:32:44.689Z,6.25
2023-05-12T20:35:13.057Z,6.03
2023-05-12T20:37:44.224Z,5.00
2023-05-12T20:40:13.474Z,5.75
2023-05-12T20:42:43.822Z,6.43
2023-05-12T20:45:13.297Z,6.00
2023-05-12T20:47:41.885Z,6.55
2023-05-12T20:50:12.714Z,5.63
2023-05-12T20:52:42.399Z,6.05
2023-05-12T20:55:11.219Z,7.18
2023-05-12T20:57:40.125Z,5.53
2023-05-12T21:00:11.371Z,5.43
2023-05-12T21:02:39.864Z,5.75
2023-05-12T21:05:08.902Z,7.90
2023-05-12T21:07:38.666Z,5.25
2023-05-12T21:10:08.189Z,6.35
2023-05-12T21:12:37.397Z,5.90
2023-05-12T21:15:07.535Z,4.57
2023-05-12T21:17:35.943Z,6.43
2023-05-12T21:20:04.630Z,4.43
2023-05-12T21:22:33.038Z,4.07
2023-05-12T21:25:02.960Z,5.15
2023-05-12T21:27:31.885Z,3.90
2023-05-12T21:30:00.430Z,3.85
2023-05-12T21:32:28.893Z,3.63
2023-05-12T21:34:57.194Z,3.47
2023-05-12T21:37:25.625Z,5.45
2023-05-12T21:39:54.034Z,3.70
2023-05-12T21:42:23.792Z,5.50
2023-05-12T21:44:52.433Z,3.67
2023-05-12T21:47:21.006Z,5.88
2023-05-12T21:49:53.847Z,3.25
2023-05-12T21:52:22.357Z,4.10
2023-05-12T21:54:50.884Z,3.78
2023-05-12T21:57:19.333Z,3.10
2023-05-12T21:59:49.537Z,3.63
2023-05-12T22:02:18.094Z,5.25
2023-05-12T22:04:46.534Z,3.95
2023-05-12T22:07:14.970Z,4.47
2023-05-12T22:09:43.421Z,2.95
2023-05-12T22:12:15.537Z,3.30
2023-05-12T22:14:43.963Z,3.72
2023-05-12T22:17:13.849Z,3.65
2023-05-12T22:19:42.399Z,3.30
2023-05-12T22:22:10.773Z,3.90
2023-05-12T22:24:39.131Z,3.60
2023-05-12T22:27:07.756Z,3.42
2023-05-12T22:29:36.055Z,4.25
2023-05-12T22:32:04.627Z,4.50
2023-05-12T22:34:34.380Z,3.00
2023-05-12T22:37:02.758Z,4.53
2023-05-12T22:39:31.077Z,4.25
2023-05-12T22:41:59.455Z,3.90
2023-05-12T22:44:27.868Z,3.60
2023-05-12T22:46:56.255Z,4.30
2023-05-12T22:49:24.723Z,4.85
2023-05-12T22:51:54.515Z,3.35
2023-05-12T22:54:22.815Z,3.35
2023-05-12T22:56:51.203Z,3.30
2023-05-12T22:59:19.607Z,3.45
2023-05-12T23:01:47.976Z,4.20
2023-05-12T23:04:16.451Z,3.78
2023-05-12T23:06:44.769Z,3.70
2023-05-12T23:09:14.799Z,3.10
2023-05-12T23:11:43.163Z,3.30
2023-05-12T23:14:12.733Z,3.63
2023-05-12T23:16:41.127Z,3.58
2023-05-12T23:19:09.651Z,3.50
2023-05-12T23:21:38.051Z,3.28
2023-05-12T23:24:07.170Z,3.03
2023-05-12T23:26:36.958Z,3.45
2023-05-12T23:29:05.354Z,3.95
